createdAt,value
2022-11-10T00:01:33.634Z,97514.31
2022-11-10T00:06:56.114Z,97519.81
2022-11-10T00:12:18.331Z,97533.81
2022-11-10T00:17:41.554Z,97534.28
2022-11-10T00:23:03.565Z,97527.78
2022-11-10T00:28:25.723Z,97528.13
2022-11-10T00:33:49.171Z,97545.28
2022-11-10T00:39:12.204Z,97562.81
2022-11-10T00:44:34.317Z,97567.41
2022-11-10T00:49:57.524Z,97577.38
2022-11-10T00:55:19.702Z,97587.28
2022-11-10T01:00:42.631Z,97604.19
2022-11-10T01:06:08.584Z,97607.00
2022-11-10T01:11:30.722Z,97602.78
2022-11-10T01:16:52.937Z,97603.88
2022-11-10T01:22:16.438Z,97608.66
2022-11-10T01:27:38.267Z,97625.66
2022-11-10T01:33:00.433Z,97623.50
2022-11-10T01:38:24.002Z,97637.31
2022-11-10T01:43:45.977Z,97631.34
2022-11-10T01:49:09.094Z,97623.63
2022-11-10T01:54:37.219Z,97630.16
2022-11-10T01:59:59.591Z,97631.13
2022-11-10T02:05:24.174Z,97640.91
2022-11-10T02:10:47.411Z,97637.75
2022-11-10T02:16:10.217Z,97643.13
2022-11-10T02:21:33.463Z,97652.50
2022-11-10T02:26:57.187Z,97657.09
2022-11-10T02:32:19.028Z,97675.53
2022-11-10T02:37:42.528Z,97666.34
2022-11-10T02:43:05.552Z,97670.53
2022-11-10T02:48:27.884Z,97669.50
2022-11-10T02:53:51.444Z,97679.06
2022-11-10T02:59:13.190Z,97683.06
2022-11-10T03:04:35.196Z,97695.06
2022-11-10T03:09:58.779Z,97696.94
2022-11-10T03:15:20.997Z,97701.91
2022-11-10T03:20:43.178Z,97704.38
2022-11-10T03:26:06.860Z,97720.50
2022-11-10T03:31:28.931Z,97727.88
2022-11-10T03:36:51.066Z,97736.41
2022-11-10T03:42:14.584Z,97738.34
2022-11-10T03:47:36.360Z,97749.72
2022-11-10T03:52:58.523Z,97745.47
2022-11-10T03:58:22.436Z,97744.91
2022-11-10T04:03:48.778Z,97742.13
2022-11-10T04:09:13.712Z,97757.19
2022-11-10T04:15:00.076Z,97781.75
2022-11-10T04:20:22.137Z,97791.75
2022-11-10T04:26:06.413Z,97802.44
2022-11-10T04:31:31.794Z,97799.69
2022-11-10T04:36:54.059Z,97796.31
2022-11-10T04:42:16.184Z,97804.97
2022-11-10T04:47:39.958Z,97813.13
2022-11-10T04:53:02.211Z,97822.34
2022-11-10T04:58:24.529Z,97829.59
2022-11-10T05:03:48.755Z,97838.53
2022-11-10T05:09:11.331Z,97843.75
2022-11-10T05:14:33.565Z,97845.66
2022-11-10T05:19:56.885Z,97846.22
2022-11-10T05:25:19.295Z,97853.03
2022-11-10T05:30:42.124Z,97861.00
2022-11-10T05:36:07.276Z,97875.56
2022-11-10T05:41:29.856Z,97888.47
2022-11-10T05:46:51.536Z,97892.25
2022-11-10T05:52:15.047Z,97892.22
2022-11-10T05:57:37.281Z,97895.16
2022-11-10T06:03:04.077Z,97896.81
2022-11-10T06:08:27.714Z,97910.41
2022-11-10T06:13:49.614Z,97930.81
2022-11-10T06:19:11.802Z,97941.63
2022-11-10T06:24:35.016Z,97947.19
2022-11-10T06:29:56.984Z,97958.56
2022-11-10T06:35:19.285Z,97970.50
2022-11-10T06:40:42.490Z,97959.13
2022-11-10T06:46:04.504Z,97956.41
2022-11-10T06:51:26.374Z,97983.69
2022-11-10T06:56:50.105Z,97992.22
2022-11-10T07:02:15.319Z,98005.38
2022-11-10T07:07:37.317Z,98008.00
2022-11-10T07:13:02.345Z,98022.19
2022-11-10T07:18:24.586Z,98021.50
2022-11-10T07:23:46.843Z,98042.91
2022-11-10T07:29:10.420Z,98046.19
2022-11-10T07:34:32.547Z,98058.53
2022-11-10T07:39:54.538Z,98063.22
2022-11-10T07:45:18.630Z,98076.03
2022-11-10T07:50:41.167Z,98077.06
2022-11-10T07:56:02.951Z,98079.94
2022-11-10T08:01:26.501Z,98074.44
2022-11-10T08:06:48.728Z,98087.69
2022-11-10T08:12:10.957Z,98099.75
2022-11-10T08:17:34.871Z,98103.03
2022-11-10T08:23:00.723Z,98115.13
2022-11-10T08:28:22.940Z,98129.19
2022-11-10T08:33:46.244Z,98155.97
2022-11-10T08:39:08.518Z,98164.00
2022-11-10T08:44:30.520Z,98179.94
2022-11-10T08:49:53.988Z,98192.84
2022-11-10T08:55:16.625Z,98194.44
2022-11-10T09:00:38.481Z,98197.75
2022-11-10T09:06:01.917Z,98201.94
2022-11-10T09:11:24.216Z,98221.59
2022-11-10T09:16:46.368Z,98228.22
2022-11-10T09:22:09.809Z,98244.53
2022-11-10T09:27:32.488Z,98253.63
2022-11-10T09:32:58.273Z,98254.00
2022-11-10T09:38:21.723Z,98249.84
2022-11-10T09:43:53.556Z,98257.25
2022-11-10T09:49:29.533Z,98270.41
2022-11-10T09:54:58.097Z,98257.97
2022-11-10T10:00:20.747Z,98263.66
2022-11-10T10:05:54.617Z,98267.78
2022-11-10T10:11:31.118Z,98283.28
2022-11-10T10:17:00.940Z,98282.69
2022-11-10T10:22:46.629Z,98283.28
2022-11-10T10:28:21.083Z,98278.69
2022-11-10T10:33:43.398Z,98286.88
2022-11-10T10:39:11.197Z,98279.59
2022-11-10T10:44:34.792Z,98293.88
2022-11-10T10:50:17.934Z,98299.19
2022-11-10T10:55:46.169Z,98299.94
2022-11-10T11:01:28.822Z,98313.50
2022-11-10T11:06:57.760Z,98305.50
2022-11-10T11:12:28.850Z,98287.97
2022-11-10T11:17:59.970Z,98296.31
2022-11-10T11:23:39.945Z,98308.25
2022-11-10T11:29:11.458Z,98303.66
2022-11-10T11:34:42.483Z,98309.84
2022-11-10T11:40:15.946Z,98318.44
2022-11-10T11:45:51.837Z,98311.78
2022-11-10T11:51:20.021Z,98325.06
2022-11-10T11:56:44.938Z,98328.00
2022-11-10T12:02:33.349Z,98324.34
2022-11-10T12:08:07.441Z,98340.72
2022-11-10T12:13:44.079Z,98333.16
2022-11-10T12:19:20.523Z,98334.13
2022-11-10T12:25:07.171Z,98329.28
2022-11-10T12:30:32.096Z,98339.81
2022-11-10T12:35:56.992Z,98339.69
2022-11-10T12:41:22.402Z,98325.91
2022-11-10T12:46:51.786Z,98315.03
2022-11-10T12:52:18.557Z,98332.19
2022-11-10T12:57:44.195Z,98339.69
2022-11-10T13:03:06.891Z,98354.47
2022-11-10T13:08:44.906Z,98363.31
2022-11-10T13:14:23.741Z,98370.91
2022-11-10T13:19:51.678Z,98373.69
2022-11-10T13:25:52.542Z,98381.38
2022-11-10T13:31:51.169Z,98376.59
2022-11-10T13:37:51.781Z,98377.81
2022-11-10T13:43:24.939Z,98374.16
2022-11-10T13:49:34.220Z,98386.25
2022-11-10T13:55:30.454Z,98394.41
2022-11-10T14:01:26.969Z,98397.50
2022-11-10T14:06:53.023Z,98397.41
2022-11-10T14:12:24.384Z,98391.78
2022-11-10T14:17:51.873Z,98409.53
2022-11-10T14:23:22.884Z,98405.69
2022-11-10T14:28:45.071Z,98400.97
2022-11-10T14:34:16.717Z,98408.56
2022-11-10T14:39:39.103Z,98408.75
2022-11-10T14:45:12.943Z,98412.34
2022-11-10T14:50:37.237Z,98415.75
2022-11-10T14:56:00.716Z,98420.13
2022-11-10T15:01:29.639Z,98426.41
2022-11-10T15:06:54.391Z,98430.66
2022-11-10T15:12:27.784Z,98438.63
2022-11-10T15:17:51.697Z,98446.41
2022-11-10T15:23:23.138Z,98460.16
2022-11-10T15:28:47.475Z,98464.16
2022-11-10T15:34:31.425Z,98467.66
2022-11-10T15:40:15.485Z,98472.28
2022-11-10T15:45:38.525Z,98479.34
2022-11-10T15:51:01.364Z,98484.16
2022-11-10T15:56:26.361Z,98480.75
2022-11-10T16:01:48.752Z,98477.34
2022-11-10T16:07:12.773Z,98477.72
2022-11-10T16:12:36.780Z,98482.31
2022-11-10T16:17:58.710Z,98495.22
2022-11-10T16:23:21.344Z,98493.94
2022-11-10T16:28:47.876Z,98510.72
2022-11-10T16:34:13.854Z,98514.81
2022-11-10T16:39:36.222Z,98530.91
2022-11-10T16:45:00.561Z,98542.75
2022-11-10T16:50:31.880Z,98547.88
2022-11-10T16:55:54.190Z,98540.16
2022-11-10T17:01:21.930Z,98542.63
2022-11-10T17:06:44.421Z,98561.53
2022-11-10T17:12:07.266Z,98559.91
2022-11-10T17:17:30.743Z,98547.94
2022-11-10T17:22:53.881Z,98546.13
2022-11-10T17:28:17.981Z,98545.06
2022-11-10T17:33:41.690Z,98543.06
2022-11-10T17:39:04.050Z,98550.38
2022-11-10T17:44:25.798Z,98555.28
2022-11-10T17:49:49.392Z,98559.69
2022-11-10T17:55:18.131Z,98549.16
2022-11-10T18:00:40.658Z,98565.50
2022-11-10T18:06:06.775Z,98562.34
2022-11-10T18:11:28.912Z,98556.44
2022-11-10T18:16:50.905Z,98566.75
2022-11-10T18:22:14.460Z,98561.56
2022-11-10T18:27:37.461Z,98568.69
2022-11-10T18:32:59.207Z,98577.38
2022-11-10T18:38:22.792Z,98565.03
2022-11-10T18:43:45.267Z,98559.34
2022-11-10T18:49:08.289Z,98568.13
2022-11-10T18:54:32.060Z,98572.78
2022-11-10T18:59:54.462Z,98568.53
2022-11-10T19:05:16.763Z,98579.69
2022-11-10T19:10:43.732Z,98587.09
2022-11-10T19:16:07.755Z,98587.88
2022-11-10T19:21:30.204Z,98581.41
2022-11-10T19:26:54.021Z,98575.72
2022-11-10T19:32:20.799Z,98575.44
2022-11-10T19:37:45.847Z,98581.53
2022-11-10T19:43:10.349Z,98594.50
2022-11-10T19:48:32.779Z,98603.72
2022-11-10T19:53:58.572Z,98603.81
2022-11-10T19:59:22.580Z,98621.84
2022-11-10T20:04:58.620Z,98623.34
2022-11-10T20:10:20.983Z,98613.50
2022-11-10T20:15:45.071Z,98614.38
2022-11-10T20:21:08.666Z,98618.19
2022-11-10T20:26:30.520Z,98619.84
2022-11-10T20:31:54.586Z,98637.19
2022-11-10T20:37:16.870Z,98640.06
2022-11-10T20:42:42.625Z,98642.28
2022-11-10T20:48:07.173Z,98651.91
2022-11-10T20:53:30.403Z,98660.00
2022-11-10T20:58:53.954Z,98667.59
2022-11-10T21:04:18.189Z,98666.19
2022-11-10T21:09:40.039Z,98664.91
2022-11-10T21:15:02.313Z,98656.94
2022-11-10T21:20:26.299Z,98645.88
2022-11-10T21:25:53.955Z,98653.63
2022-11-10T21:31:15.991Z,98653.88
2022-11-10T21:36:39.365Z,98672.50
2022-11-10T21:42:01.453Z,98669.50
2022-11-10T21:47:24.354Z,98673.41
2022-11-10T21:52:48.126Z,98675.22
2022-11-10T21:58:10.320Z,98665.00
2022-11-10T22:03:33.784Z,98664.00
2022-11-10T22:08:57.128Z,98669.78
2022-11-10T22:14:36.612Z,98676.75
2022-11-10T22:19:58.796Z,98662.50
2022-11-10T22:25:22.210Z,98663.88
2022-11-10T22:30:44.129Z,98682.53
2022-11-10T22:36:09.987Z,98685.19
2022-11-10T22:41:59.020Z,98689.41
2022-11-10T22:47:21.131Z,98687.69
2022-11-10T22:52:43.464Z,98673.56
2022-11-10T22:58:07.141Z,98662.28
2022-11-10T23:03:28.972Z,98670.13
2022-11-10T23:08:51.233Z,98664.22
2022-11-10T23:14:14.698Z,98663.19
2022-11-10T23:19:36.742Z,98644.59
2022-11-10T23:24:58.672Z,98653.69
2022-11-10T23:30:24.226Z,98650.78
2022-11-10T23:35:46.386Z,98654.03
2022-11-10T23:41:12.953Z,98673.56
2022-11-10T23:46:36.481Z,98680.47
2022-11-10T23:51:58.544Z,98686.56
2022-11-10T23:57:20.982Z,98703.50
